createdAt,value
2023-04-12T00:01:04.618Z,28.15
2023-04-12T00:03:34.477Z,27.77
2023-04-12T00:06:03.468Z,25.83
2023-04-12T00:08:33.862Z,29.88
2023-04-12T00:11:02.172Z,29.30
2023-04-12T00:13:29.463Z,33.53
2023-04-12T00:15:56.474Z,34.58
2023-04-12T00:18:25.410Z,30.73
2023-04-12T00:20:53.260Z,31.05
2023-04-12T00:23:20.741Z,31.70
2023-04-12T00:25:47.879Z,29.83
2023-04-12T00:28:16.139Z,28.52
2023-04-12T00:30:43.940Z,26.40
2023-04-12T00:33:11.166Z,33.60
2023-04-12T00:35:38.220Z,27.15
2023-04-12T00:38:10.560Z,27.55
2023-04-12T00:40:44.448Z,28.23
2023-04-12T00:43:15.660Z,25.90
2023-04-12T00:45:42.795Z,31.02
2023-04-12T00:48:10.822Z,29.73
2023-04-12T00:50:37.823Z,24.98
2023-04-12T00:53:05.146Z,26.50
2023-04-12T00:55:32.177Z,26.48
2023-04-12T00:57:59.585Z,30.02
2023-04-12T01:00:27.431Z,26.17
2023-04-12T01:02:54.885Z,25.98
2023-04-12T01:05:23.597Z,30.77
2023-04-12T01:08:15.637Z,27.45
2023-04-12T01:11:09.436Z,27.83
2023-04-12T01:13:49.225Z,27.60
2023-04-12T01:16:25.016Z,27.85
2023-04-12T01:18:54.168Z,27.90
2023-04-12T01:21:49.984Z,27.40
2023-04-12T01:24:43.717Z,27.10
2023-04-12T01:27:37.762Z,24.27
2023-04-12T01:30:05.100Z,24.35
2023-04-12T01:32:32.149Z,27.80
2023-04-12T01:34:59.159Z,27.55
2023-04-12T01:37:26.117Z,27.52
2023-04-12T01:39:53.292Z,27.13
2023-04-12T01:42:23.179Z,28.13
2023-04-12T01:44:50.657Z,30.40
2023-04-12T01:47:17.557Z,27.73
2023-04-12T01:50:00.643Z,30.40
2023-04-12T01:52:27.617Z,25.20
2023-04-12T01:54:55.041Z,23.48
2023-04-12T01:57:22.203Z,24.23
2023-04-12T01:59:49.258Z,24.80
2023-04-12T02:02:16.525Z,25.38
2023-04-12T02:04:43.601Z,25.95
2023-04-12T02:07:11.523Z,28.35
2023-04-12T02:09:38.847Z,29.20
2023-04-12T02:12:06.630Z,30.73
2023-04-12T02:14:33.974Z,35.45
2023-04-12T02:17:04.396Z,31.75
2023-04-12T02:19:32.770Z,30.60
2023-04-12T02:21:59.930Z,27.95
2023-04-12T02:24:29.213Z,30.95
2023-04-12T02:26:56.532Z,27.17
2023-04-12T02:29:23.980Z,34.83
2023-04-12T02:31:51.373Z,26.00
2023-04-12T02:34:19.570Z,23.75
2023-04-12T02:36:52.502Z,28.85
2023-04-12T02:39:22.257Z,28.95
2023-04-12T02:41:51.606Z,28.80
2023-04-12T02:44:18.542Z,33.17
2023-04-12T02:47:08.490Z,30.58
2023-04-12T02:49:36.340Z,25.38
2023-04-12T02:52:04.107Z,28.60
2023-04-12T02:54:39.062Z,28.77
2023-04-12T02:57:08.300Z,31.63
2023-04-12T02:59:42.486Z,28.40
2023-04-12T03:02:20.609Z,30.30
2023-04-12T03:04:51.017Z,30.88
2023-04-12T03:07:22.577Z,31.88
2023-04-12T03:09:51.738Z,33.42
2023-04-12T03:12:21.155Z,32.05
2023-04-12T03:15:01.248Z,29.58
2023-04-12T03:17:29.699Z,28.63
2023-04-12T03:19:58.272Z,34.22
2023-04-12T03:22:26.671Z,39.55
2023-04-12T03:24:58.537Z,56.53
2023-04-12T03:27:25.561Z,52.78
2023-04-12T03:29:53.542Z,41.63
2023-04-12T03:32:23.156Z,53.72
2023-04-12T03:34:51.125Z,47.67
2023-04-12T03:37:24.640Z,49.80
2023-04-12T03:39:53.059Z,63.33
2023-04-12T03:42:33.030Z,60.65
2023-04-12T03:45:06.039Z,55.58
2023-04-12T03:47:33.342Z,58.78
2023-04-12T03:52:35.127Z,62.90
2023-04-12T03:55:07.866Z,53.67
2023-04-12T03:57:36.161Z,50.47
2023-04-12T04:00:04.824Z,44.08
2023-04-12T04:02:47.412Z,40.47
2023-04-12T04:05:16.566Z,39.67
2023-04-12T04:07:44.871Z,39.63
2023-04-12T04:10:13.517Z,41.88
2023-04-12T04:12:41.923Z,48.13
2023-04-12T04:15:11.840Z,43.50
2023-04-12T04:17:40.242Z,48.65
2023-04-12T04:20:09.176Z,57.33
2023-04-12T04:22:38.668Z,54.72
2023-04-12T04:25:06.225Z,44.38
2023-04-12T04:27:38.567Z,48.03
2023-04-12T04:30:08.172Z,44.33
2023-04-12T04:32:38.696Z,43.45
2023-04-12T04:35:06.248Z,45.33
2023-04-12T04:37:44.977Z,34.30
2023-04-12T04:40:15.165Z,35.80
2023-04-12T04:42:43.260Z,40.25
2023-04-12T04:45:14.829Z,32.72
2023-04-12T04:47:44.444Z,38.13
2023-04-12T04:50:11.741Z,38.55
2023-04-12T04:52:39.475Z,35.10
2023-04-12T04:55:11.402Z,33.67
2023-04-12T04:57:44.083Z,38.20
2023-04-12T05:00:11.845Z,31.05
2023-04-12T05:02:43.155Z,36.92
2023-04-12T05:05:16.185Z,39.92
2023-04-12T05:07:44.835Z,30.17
2023-04-12T05:10:11.986Z,37.38
2023-04-12T05:12:41.679Z,29.80
2023-04-12T05:15:12.268Z,31.92
2023-04-12T05:17:41.110Z,26.73
2023-04-12T05:20:10.838Z,32.55
2023-04-12T05:22:39.082Z,32.20
2023-04-12T05:25:06.630Z,30.13
2023-04-12T05:27:39.346Z,26.48
2023-04-12T05:30:09.078Z,31.88
2023-04-12T05:32:36.181Z,25.90
2023-04-12T05:35:03.693Z,25.75
2023-04-12T05:37:31.257Z,28.85
2023-04-12T05:39:58.330Z,23.60
2023-04-12T05:42:25.514Z,24.92
2023-04-12T05:44:52.632Z,26.40
2023-04-12T05:47:21.613Z,27.25
2023-04-12T05:49:49.102Z,26.90
2023-04-12T05:52:18.132Z,22.65
2023-04-12T05:54:45.284Z,23.15
2023-04-12T05:57:17.835Z,20.38
2023-04-12T05:59:47.656Z,20.90
2023-04-12T06:02:14.770Z,19.38
2023-04-12T06:04:50.148Z,19.17
2023-04-12T06:07:19.582Z,16.67
2023-04-12T06:09:47.439Z,22.40
2023-04-12T06:12:15.439Z,17.40
2023-04-12T06:14:42.763Z,17.65
2023-04-12T06:17:09.759Z,14.80
2023-04-12T06:19:36.763Z,14.50
2023-04-12T06:22:03.788Z,18.02
2023-04-12T06:24:31.897Z,14.98
2023-04-12T06:26:59.087Z,17.58
2023-04-12T06:29:26.235Z,15.27
2023-04-12T06:31:53.353Z,16.20
2023-04-12T06:34:20.605Z,13.70
2023-04-12T06:36:48.238Z,19.10
2023-04-12T06:39:16.421Z,16.45
2023-04-12T06:41:50.505Z,18.98
2023-04-12T06:44:20.352Z,15.40
2023-04-12T06:46:47.225Z,15.98
2023-04-12T06:49:14.328Z,12.55
2023-04-12T06:51:41.352Z,11.98
2023-04-12T06:54:08.331Z,11.65
2023-04-12T06:56:37.224Z,11.25
2023-04-12T06:59:04.289Z,11.98
2023-04-12T07:01:31.587Z,15.48
2023-04-12T07:03:58.686Z,9.52
2023-04-12T07:06:26.390Z,14.00
2023-04-12T07:08:53.408Z,20.70
2023-04-12T07:11:23.097Z,10.32
2023-04-12T07:13:50.838Z,15.35
2023-04-12T07:16:18.497Z,14.38
2023-04-12T07:18:45.651Z,13.55
2023-04-12T07:21:17.586Z,11.93
2023-04-12T07:23:44.873Z,11.27
2023-04-12T07:26:11.856Z,13.65
2023-04-12T07:28:39.516Z,9.85
2023-04-12T07:31:07.314Z,9.73
2023-04-12T07:33:36.240Z,13.23
2023-04-12T07:36:04.115Z,10.65
2023-04-12T07:38:31.332Z,10.77
2023-04-12T07:40:58.421Z,10.73
2023-04-12T07:43:25.597Z,13.07
2023-04-12T07:45:54.234Z,11.00
2023-04-12T07:48:21.343Z,10.48
2023-04-12T07:50:48.220Z,10.80
2023-04-12T07:53:22.039Z,11.07
2023-04-12T07:55:49.319Z,12.60
2023-04-12T07:58:17.156Z,10.80
2023-04-12T08:00:44.828Z,12.02
2023-04-12T08:03:16.220Z,15.23
2023-04-12T08:05:44.308Z,11.85
2023-04-12T08:08:11.866Z,11.23
2023-04-12T08:10:39.526Z,8.93
2023-04-12T08:13:07.846Z,12.45
2023-04-12T08:15:34.855Z,11.93
2023-04-12T08:18:02.409Z,18.02
2023-04-12T08:20:29.646Z,15.00
2023-04-12T08:22:56.713Z,13.38
2023-04-12T08:25:24.514Z,15.52
2023-04-12T08:27:51.691Z,11.75
2023-04-12T08:30:18.859Z,9.00
2023-04-12T08:32:46.051Z,9.75
2023-04-12T08:35:14.467Z,9.55
2023-04-12T08:37:41.997Z,15.70
2023-04-12T08:40:09.479Z,13.55
2023-04-12T08:42:39.840Z,7.63
2023-04-12T08:45:07.830Z,10.55
2023-04-12T08:47:35.001Z,11.45
2023-04-12T08:50:06.035Z,10.10
2023-04-12T08:52:33.152Z,10.35
2023-04-12T08:55:01.487Z,12.68
2023-04-12T08:57:30.090Z,11.07
2023-04-12T09:00:00.299Z,27.73
2023-04-12T09:02:27.515Z,21.17
2023-04-12T09:04:54.826Z,12.75
2023-04-12T09:07:28.071Z,10.00
2023-04-12T09:09:55.255Z,10.98
2023-04-12T09:12:24.280Z,9.85
2023-04-12T09:15:12.837Z,10.27
2023-04-12T09:17:41.090Z,9.30
2023-04-12T09:20:17.268Z,23.23
2023-04-12T09:22:45.323Z,9.15
2023-04-12T09:25:12.925Z,9.50
2023-04-12T09:27:49.708Z,10.48
2023-04-12T09:30:17.275Z,11.13
2023-04-12T09:32:44.320Z,11.77
2023-04-12T09:35:12.216Z,10.00
2023-04-12T09:37:40.337Z,8.48
2023-04-12T09:40:08.946Z,7.65
2023-04-12T09:42:36.997Z,8.57
2023-04-12T09:45:19.631Z,7.53
2023-04-12T09:47:46.776Z,6.70
2023-04-12T09:50:24.677Z,7.05
2023-04-12T09:52:51.844Z,10.77
2023-04-12T09:55:18.851Z,6.57
2023-04-12T09:57:46.197Z,6.90
2023-04-12T10:00:20.229Z,6.88
2023-04-12T10:02:55.407Z,6.30
2023-04-12T10:05:26.286Z,7.03
2023-04-12T10:07:55.009Z,8.48
2023-04-12T10:10:22.548Z,8.27
2023-04-12T10:12:49.636Z,8.00
2023-04-12T10:15:21.348Z,7.97
2023-04-12T10:17:55.489Z,9.65
2023-04-12T10:20:24.194Z,6.85
2023-04-12T10:22:54.240Z,8.85
2023-04-12T10:25:25.433Z,8.77
2023-04-12T10:27:52.728Z,6.95
2023-04-12T10:30:20.767Z,12.68
2023-04-12T10:32:47.891Z,8.73
2023-04-12T10:35:15.099Z,8.20
2023-04-12T10:38:01.567Z,9.05
2023-04-12T10:40:29.612Z,7.82
2023-04-12T10:43:32.300Z,9.93
2023-04-12T10:46:04.436Z,9.07
2023-04-12T10:48:32.778Z,9.98
2023-04-12T10:51:13.057Z,8.10
2023-04-12T10:53:40.238Z,6.20
2023-04-12T10:56:32.727Z,10.48
2023-04-12T10:59:04.655Z,7.00
2023-04-12T11:01:39.314Z,7.25
2023-04-12T11:04:10.444Z,9.45
2023-04-12T11:06:53.370Z,9.25
2023-04-12T11:09:55.572Z,9.45
2023-04-12T11:12:35.222Z,10.27
2023-04-12T11:15:02.391Z,10.48
2023-04-12T11:17:38.781Z,9.70
2023-04-12T11:20:06.657Z,8.43
2023-04-12T11:22:33.861Z,7.88
2023-04-12T11:25:02.538Z,11.27
2023-04-12T11:27:31.992Z,10.27
2023-04-12T11:29:59.892Z,9.30
2023-04-12T11:32:28.575Z,8.60
2023-04-12T11:34:56.827Z,12.57
2023-04-12T11:37:24.306Z,9.07
2023-04-12T11:39:53.071Z,10.00
2023-04-12T11:42:21.278Z,10.63
2023-04-12T11:44:57.627Z,9.38
2023-04-12T11:47:27.929Z,16.90
2023-04-12T11:49:56.660Z,10.25
2023-04-12T11:52:31.270Z,8.73
2023-04-12T11:55:01.495Z,7.57
2023-04-12T11:57:31.232Z,9.70
2023-04-12T11:59:59.706Z,8.63
2023-04-12T12:02:30.393Z,9.90
2023-04-12T12:05:00.755Z,7.72
2023-04-12T12:07:28.324Z,7.68
2023-04-12T12:09:55.589Z,9.35
2023-04-12T12:12:22.589Z,8.82
2023-04-12T12:14:49.634Z,13.27
2023-04-12T12:17:17.558Z,10.13
2023-04-12T12:19:46.012Z,7.95
2023-04-12T12:22:13.893Z,10.63
2023-04-12T12:24:51.364Z,8.32
2023-04-12T12:27:19.945Z,11.45
2023-04-12T12:29:53.567Z,8.00
2023-04-12T12:32:23.403Z,9.77
2023-04-12T12:34:54.793Z,8.85
2023-04-12T12:37:24.598Z,20.35
2023-04-12T12:40:13.842Z,13.20
2023-04-12T12:42:48.892Z,12.75
2023-04-12T12:45:17.308Z,13.73
2023-04-12T12:48:03.330Z,10.20
2023-04-12T12:53:00.836Z,11.90
2023-04-12T12:55:28.630Z,9.32
2023-04-12T12:58:07.496Z,10.60
2023-04-12T13:00:35.576Z,8.90
2023-04-12T13:03:03.416Z,8.50
2023-04-12T13:05:30.985Z,12.20
2023-04-12T13:07:58.444Z,7.18
2023-04-12T13:10:27.216Z,8.95
2023-04-12T13:12:54.467Z,7.60
2023-04-12T13:15:24.314Z,10.02
2023-04-12T13:17:52.606Z,8.35
2023-04-12T13:20:19.828Z,8.70
2023-04-12T13:22:46.791Z,9.25
2023-04-12T13:25:14.070Z,15.02
2023-04-12T13:27:41.257Z,6.65
2023-04-12T13:30:08.722Z,7.80
2023-04-12T13:32:36.037Z,7.20
2023-04-12T13:35:04.024Z,10.73
2023-04-12T13:37:31.617Z,8.90
2023-04-12T13:39:58.589Z,10.20
2023-04-12T13:42:25.766Z,9.45
2023-04-12T13:44:52.942Z,8.43
2023-04-12T13:47:20.100Z,9.43
2023-04-12T13:49:47.162Z,8.88
2023-04-12T13:52:14.127Z,8.38
2023-04-12T13:54:41.309Z,7.35
2023-04-12T13:57:08.363Z,8.60
2023-04-12T13:59:35.635Z,9.10
2023-04-12T14:02:02.797Z,12.30
2023-04-12T14:04:30.958Z,7.82
2023-04-12T14:06:59.097Z,10.55
2023-04-12T14:09:27.412Z,9.73
2023-04-12T14:11:58.083Z,8.73
2023-04-12T14:14:25.709Z,8.32
2023-04-12T14:16:53.801Z,10.55
2023-04-12T14:19:21.363Z,9.57
2023-04-12T14:21:48.614Z,13.23
2023-04-12T14:24:16.347Z,13.25
2023-04-12T14:26:43.835Z,8.55
2023-04-12T14:29:11.117Z,11.48
2023-04-12T14:31:38.594Z,13.77
2023-04-12T14:34:06.403Z,11.27
2023-04-12T14:36:33.566Z,12.57
2023-04-12T14:39:03.739Z,7.82
2023-04-12T14:41:31.796Z,11.45
2023-04-12T14:44:02.035Z,9.85
2023-04-12T14:46:29.377Z,8.68
2023-04-12T14:48:57.392Z,9.90
2023-04-12T14:51:24.655Z,10.50
2023-04-12T14:53:51.654Z,12.10
2023-04-12T14:56:24.643Z,9.82
2023-04-12T14:58:56.018Z,8.93
2023-04-12T15:01:23.947Z,8.68
2023-04-12T15:03:52.505Z,11.27
2023-04-12T15:06:22.024Z,10.68
2023-04-12T15:08:54.386Z,15.38
2023-04-12T15:11:27.263Z,10.63
2023-04-12T15:13:55.298Z,12.00
2023-04-12T15:16:23.118Z,9.23
2023-04-12T15:18:50.670Z,9.00
2023-04-12T15:21:17.826Z,11.70
2023-04-12T15:23:45.124Z,10.07
2023-04-12T15:26:14.199Z,11.10
2023-04-12T15:28:41.842Z,12.93
2023-04-12T15:31:09.691Z,18.88
2023-04-12T15:33:37.546Z,12.15
2023-04-12T15:36:05.038Z,17.83
2023-04-12T15:38:32.185Z,14.02
2023-04-12T15:41:01.776Z,15.73
2023-04-12T15:43:29.040Z,10.85
2023-04-12T15:45:56.790Z,10.50
2023-04-12T15:48:24.614Z,12.05
2023-04-12T15:50:52.266Z,14.98
2023-04-12T15:53:20.383Z,14.70
2023-04-12T15:55:47.902Z,13.30
2023-04-12T15:58:14.872Z,12.02
2023-04-12T16:00:42.523Z,10.63
2023-04-12T16:03:10.145Z,13.32
2023-04-12T16:05:37.406Z,16.63
2023-04-12T16:08:04.377Z,11.60
2023-04-12T16:10:32.248Z,12.88
2023-04-12T16:12:59.358Z,11.93
2023-04-12T16:15:26.804Z,12.10
2023-04-12T16:17:55.596Z,13.35
2023-04-12T16:20:23.101Z,15.07
2023-04-12T16:22:54.316Z,9.57
2023-04-12T16:25:22.533Z,14.43
2023-04-12T16:27:49.594Z,14.57
2023-04-12T16:30:17.202Z,13.45
2023-04-12T16:32:47.469Z,13.32
2023-04-12T16:35:15.261Z,14.48
2023-04-12T16:37:43.272Z,21.20
2023-04-12T16:40:12.825Z,15.38
2023-04-12T16:42:41.842Z,22.48
2023-04-12T16:45:09.683Z,17.77
2023-04-12T16:47:37.467Z,19.20
2023-04-12T16:50:05.022Z,18.70
2023-04-12T16:52:32.169Z,20.17
2023-04-12T16:55:00.800Z,15.38
2023-04-12T16:57:28.204Z,15.23
2023-04-12T16:59:55.621Z,14.55
2023-04-12T17:02:23.064Z,20.08
2023-04-12T17:04:50.481Z,14.90
2023-04-12T17:07:17.744Z,16.58
2023-04-12T17:09:44.758Z,14.23
2023-04-12T17:12:12.664Z,15.68
2023-04-12T17:14:39.827Z,19.38
2023-04-12T17:17:07.195Z,15.52
2023-04-12T17:19:34.530Z,11.88
2023-04-12T17:22:01.856Z,15.38
2023-04-12T17:24:29.348Z,14.10
2023-04-12T17:26:57.614Z,14.60
2023-04-12T17:29:24.979Z,18.83
2023-04-12T17:31:54.373Z,17.63
2023-04-12T17:34:22.344Z,20.08
2023-04-12T17:36:49.469Z,13.30
2023-04-12T17:39:16.769Z,13.13
2023-04-12T17:41:43.875Z,14.82
2023-04-12T17:44:10.940Z,14.30
2023-04-12T17:46:38.086Z,12.90
2023-04-12T17:49:06.848Z,13.52
2023-04-12T17:51:33.993Z,14.45
2023-04-12T17:54:03.638Z,13.23
2023-04-12T17:56:30.915Z,11.95
2023-04-12T17:58:58.500Z,13.57
2023-04-12T18:01:25.561Z,13.35
2023-04-12T18:03:52.973Z,13.00
2023-04-12T18:06:20.551Z,18.25
2023-04-12T18:08:47.643Z,16.75
2023-04-12T18:11:14.917Z,14.57
2023-04-12T18:13:42.096Z,11.75
2023-04-12T18:16:09.354Z,14.02
2023-04-12T18:18:36.605Z,12.75
2023-04-12T18:21:05.501Z,14.73
2023-04-12T18:23:32.576Z,14.68
2023-04-12T18:25:59.688Z,15.75
2023-04-12T18:28:26.690Z,14.38
2023-04-12T18:30:56.108Z,14.70
2023-04-12T18:33:24.379Z,15.20
2023-04-12T18:35:51.472Z,13.25
2023-04-12T18:38:18.814Z,14.38
2023-04-12T18:40:46.000Z,15.43
2023-04-12T18:43:12.998Z,14.38
2023-04-12T18:45:40.937Z,15.65
2023-04-12T18:48:08.756Z,18.08
2023-04-12T18:50:39.403Z,20.48
2023-04-12T18:53:07.216Z,17.23
2023-04-12T18:55:34.412Z,19.45
2023-04-12T18:58:01.875Z,23.80
2023-04-12T19:00:29.088Z,18.80
2023-04-12T19:02:56.352Z,21.70
2023-04-12T19:05:24.193Z,30.67
2023-04-12T19:07:52.058Z,48.17
2023-04-12T19:10:19.226Z,47.40
2023-04-12T19:12:46.285Z,47.08
2023-04-12T19:15:13.408Z,44.58
2023-04-12T19:17:40.586Z,49.90
2023-04-12T19:20:09.081Z,66.38
2023-04-12T19:22:36.361Z,81.78
2023-04-12T19:25:03.681Z,113.13
2023-04-12T19:27:30.757Z,122.15
2023-04-12T19:29:58.320Z,135.15
2023-04-12T19:32:25.703Z,145.27
2023-04-12T19:34:52.807Z,140.40
2023-04-12T19:37:19.997Z,143.63
2023-04-12T19:39:47.098Z,139.98
2023-04-12T19:42:16.838Z,132.35
2023-04-12T19:44:43.907Z,134.23
2023-04-12T19:47:11.040Z,117.10
2023-04-12T19:49:38.096Z,127.80
2023-04-12T19:52:05.852Z,100.85
2023-04-12T19:54:33.494Z,105.65
2023-04-12T19:57:00.504Z,87.90
2023-04-12T19:59:30.855Z,74.95
2023-04-12T20:01:58.702Z,62.78
2023-04-12T20:04:26.598Z,63.40
2023-04-12T20:06:53.835Z,55.10
2023-04-12T20:09:24.107Z,54.47
2023-04-12T20:11:51.179Z,48.45
2023-04-12T20:14:18.213Z,42.00
2023-04-12T20:16:45.592Z,43.65
2023-04-12T20:19:13.290Z,39.58
2023-04-12T20:21:40.420Z,31.60
2023-04-12T20:24:08.815Z,37.20
2023-04-12T20:26:36.397Z,27.88
2023-04-12T20:29:05.364Z,24.27
2023-04-12T20:31:35.372Z,23.60
2023-04-12T20:34:02.389Z,25.83
2023-04-12T20:36:29.725Z,24.25
2023-04-12T20:38:57.032Z,28.60
2023-04-12T20:41:24.360Z,25.67
2023-04-12T20:43:51.676Z,25.35
2023-04-12T20:46:25.870Z,24.88
2023-04-12T20:48:56.534Z,26.33
2023-04-12T20:51:24.224Z,22.02
2023-04-12T20:53:51.787Z,26.65
2023-04-12T20:56:18.956Z,23.77
2023-04-12T20:58:48.501Z,25.90
2023-04-12T21:01:15.752Z,33.03
2023-04-12T21:03:43.384Z,26.15
2023-04-12T21:06:11.048Z,24.05
2023-04-12T21:08:39.002Z,24.77
2023-04-12T21:11:06.298Z,27.88
2023-04-12T21:13:34.708Z,29.88
2023-04-12T21:16:02.529Z,40.00
2023-04-12T21:18:32.303Z,29.92
2023-04-12T21:20:59.802Z,29.63
2023-04-12T21:23:26.865Z,30.38
2023-04-12T21:25:54.114Z,31.10
2023-04-12T21:28:21.055Z,28.20
2023-04-12T21:30:49.568Z,25.50
2023-04-12T21:33:24.714Z,29.30
2023-04-12T21:35:54.783Z,27.23
2023-04-12T21:38:22.389Z,22.48
2023-04-12T21:40:49.616Z,23.65
2023-04-12T21:46:10.093Z,24.60
2023-04-12T21:48:37.167Z,19.10
2023-04-12T21:51:04.274Z,20.35
2023-04-12T21:53:31.246Z,17.73
2023-04-12T21:55:59.094Z,25.63
2023-04-12T21:58:26.044Z,19.02
2023-04-12T22:00:53.484Z,18.83
2023-04-12T22:03:20.560Z,16.98
2023-04-12T22:06:00.893Z,25.40
2023-04-12T22:08:32.988Z,20.02
2023-04-12T22:11:00.463Z,19.40
2023-04-12T22:13:27.597Z,19.38
2023-04-12T22:15:54.579Z,19.15
2023-04-12T22:18:22.108Z,18.77
2023-04-12T22:20:49.083Z,20.73
2023-04-12T22:23:18.232Z,21.67
2023-04-12T22:25:46.042Z,22.38
2023-04-12T22:28:12.964Z,21.52
2023-04-12T22:30:39.959Z,20.35
2023-04-12T22:33:08.312Z,20.58
2023-04-12T22:35:37.254Z,20.48
2023-04-12T22:38:04.962Z,19.33
2023-04-12T22:40:31.925Z,18.95
2023-04-12T22:42:58.897Z,20.27
2023-04-12T22:45:25.845Z,15.85
2023-04-12T22:47:53.105Z,16.90
2023-04-12T22:50:20.150Z,14.80
2023-04-12T22:52:49.977Z,14.63
2023-04-12T22:55:20.573Z,14.40
2023-04-12T22:57:47.539Z,13.95
2023-04-12T23:00:17.012Z,16.50
2023-04-12T23:02:46.222Z,15.85
2023-04-12T23:05:14.146Z,15.88
2023-04-12T23:07:41.537Z,17.15
2023-04-12T23:10:09.408Z,13.18
2023-04-12T23:12:37.425Z,16.20
2023-04-12T23:15:05.780Z,13.82
2023-04-12T23:17:33.885Z,17.35
2023-04-12T23:20:01.966Z,20.38
2023-04-12T23:22:48.588Z,23.27
2023-04-12T23:25:24.438Z,21.08
2023-04-12T23:27:51.747Z,18.95
2023-04-12T23:30:19.003Z,16.88
2023-04-12T23:32:46.292Z,24.13
2023-04-12T23:35:14.467Z,23.98
2023-04-12T23:37:41.857Z,17.80
2023-04-12T23:40:14.890Z,22.27
2023-04-12T23:42:43.476Z,19.13
2023-04-12T23:45:10.988Z,19.92
2023-04-12T23:47:38.253Z,19.05
2023-04-12T23:50:06.339Z,19.48
2023-04-12T23:52:33.389Z,19.67
2023-04-12T23:55:00.456Z,19.17
2023-04-12T23:57:27.417Z,19.60
2023-04-12T23:59:54.449Z,22.80
